Time;durP1;ratioP1;P1;durP2;ratioP2;P2;SDS_P1;SDS_P2;PMS_P1;PMS_P2;Temp;Humidity;BMP_temperature;BMP_pressure;BME280_temperature;BME280_humidity;BME280_pressure;Samples;Min_cycle;Max_cycle;Signal;HPM_P1;HPM_P2
2023/07/13 00:02:04;;;;;;;2.42;2.22;;;19.20;99.90;;;20.09;81.39;97860.38;10442941;28;20318;-67
2023/07/13 00:07:08;;;;;;;2.20;2.00;;;19.10;99.90;;;19.99;82.98;97846.38;10445639;28;20316;-66
2023/07/13 00:12:27;;;;;;;2.30;2.20;;;19.00;99.90;;;19.89;83.20;97853.09;10446424;28;20236;-67
2023/07/13 00:17:31;;;;;;;2.88;2.58;;;19.00;99.90;;;19.91;83.34;97853.13;10454188;28;20600;-67
2023/07/13 00:22:34;;;;;;;4.28;2.28;;;18.90;99.90;;;19.68;84.00;97845.72;10450486;28;20301;-67
2023/07/13 00:27:38;;;;;;;2.50;2.10;;;18.80;99.90;;;19.62;82.56;97861.13;10450086;28;20224;-67
2023/07/13 00:32:42;;;;;;;3.42;2.40;;;18.70;99.90;;;19.64;83.84;97854.28;10452338;28;20303;-67
2023/07/13 00:37:46;;;;;;;3.72;2.38;;;18.80;99.90;;;19.66;82.30;97860.41;10445936;28;20295;-67
2023/07/13 00:42:49;;;;;;;3.05;2.75;;;18.80;99.90;;;19.73;83.52;97866.59;10447612;28;20296;-67
2023/07/13 00:47:54;;;;;;;3.78;2.70;;;18.90;99.90;;;19.84;84.98;97866.81;10444745;28;20239;-67
2023/07/13 00:52:58;;;;;;;3.45;2.50;;;18.90;99.90;;;19.78;83.99;97867.56;10438270;28;20221;-66
2023/07/13 00:58:04;;;;;;;3.63;2.50;;;18.80;99.90;;;19.70;84.57;97875.19;10457758;28;20229;-66
2023/07/13 01:03:09;;;;;;;3.97;2.75;;;18.80;99.90;;;19.57;85.59;97878.31;10457262;28;20227;-66
2023/07/13 01:08:12;;;;;;;2.70;2.42;;;18.60;99.90;;;19.45;85.36;97880.63;10454104;28;20221;-67
2023/07/13 01:13:15;;;;;;;3.33;2.55;;;18.50;99.90;;;19.45;86.52;97884.09;10454803;28;20252;-66
2023/07/13 01:18:24;;;;;;;2.88;2.20;;;18.50;99.90;;;19.38;87.84;97882.22;10452691;28;20316;-67
2023/07/13 01:23:30;;;;;;;2.60;2.40;;;18.50;99.90;;;19.36;87.37;97877.00;10457067;28;20806;-66
2023/07/13 01:28:36;;;;;;;2.35;2.17;;;18.40;99.90;;;19.32;86.04;97888.16;10443028;28;20225;-66
2023/07/13 01:33:41;;;;;;;2.47;2.20;;;18.40;99.90;;;19.25;84.75;97886.22;10458066;28;20224;-66
2023/07/13 01:38:46;;;;;;;3.28;2.20;;;18.30;99.90;;;19.12;84.64;97889.41;10455313;28;20271;-67
2023/07/13 01:43:49;;;;;;;3.10;2.30;;;18.20;99.90;;;19.15;84.47;97894.66;10445133;28;20228;-66
2023/07/13 01:48:52;;;;;;;2.78;2.58;;;18.20;99.90;;;19.00;84.29;97896.84;10455607;28;20670;-67
2023/07/13 01:53:57;;;;;;;2.08;1.90;;;18.10;99.90;;;18.98;84.15;97888.19;10448903;28;20303;-66
2023/07/13 01:59:00;;;;;;;3.53;2.80;;;18.00;99.90;;;18.87;86.47;97904.34;10452300;28;20229;-67
2023/07/13 02:04:04;;;;;;;3.35;2.47;;;17.90;99.90;;;18.69;85.41;97894.34;10461268;28;20318;-66
2023/07/13 02:09:08;;;;;;;2.90;2.33;;;17.80;99.90;;;18.51;83.45;97899.03;10452767;28;20232;-66
2023/07/13 02:14:11;;;;;;;2.63;2.30;;;17.50;99.90;;;18.53;85.30;97901.69;10452451;28;20240;-66
2023/07/13 02:19:14;;;;;;;3.05;2.30;;;17.60;99.90;;;18.55;83.88;97911.25;10444314;28;20315;-66
2023/07/13 02:24:20;;;;;;;5.07;2.67;;;17.50;99.90;;;18.36;83.43;97914.16;10446645;28;20217;-66
2023/07/13 02:29:24;;;;;;;3.17;2.10;;;17.40;99.90;;;18.21;82.06;97920.69;10440438;28;20229;-66
2023/07/13 02:34:27;;;;;;;3.25;2.38;;;17.30;99.90;;;18.21;82.92;97914.63;10444622;28;21031;-66
2023/07/13 02:39:33;;;;;;;2.90;2.60;;;17.20;99.90;;;18.14;84.39;97915.28;10444117;28;20652;-66
2023/07/13 02:44:36;;;;;;;3.10;1.98;;;17.30;99.90;;;18.18;82.56;97909.38;10436734;28;20324;-66
2023/07/13 02:49:40;;;;;;;2.47;2.10;;;17.30;99.90;;;18.21;82.51;97914.63;10438381;28;20239;-66
2023/07/13 02:54:44;;;;;;;3.00;2.33;;;17.30;99.90;;;18.29;83.15;97920.91;10433774;28;20650;-66
2023/07/13 02:59:47;;;;;;;2.50;2.30;;;17.40;99.90;;;18.08;82.76;97920.28;10446552;28;20236;-66
2023/07/13 03:04:51;;;;;;;2.42;2.22;;;17.20;99.90;;;18.06;85.74;97933.19;10444966;28;20235;-66
2023/07/13 03:09:57;;;;;;;3.90;3.15;;;17.10;99.90;;;18.00;87.12;97931.31;10439451;28;20620;-66
2023/07/13 03:15:00;;;;;;;3.55;2.80;;;17.00;99.90;;;17.88;88.95;97938.69;10441233;28;20574;-66
2023/07/13 03:20:03;;;;;;;5.07;2.88;;;16.90;99.90;;;17.83;89.75;97937.69;10439564;28;20582;-67
2023/07/13 03:25:09;;;;;;;4.45;2.92;;;16.80;99.90;;;17.77;89.56;97938.34;10436876;28;20235;-66
2023/07/13 03:30:13;;;;;;;3.28;2.80;;;16.70;99.90;;;17.52;91.10;97947.06;10441443;28;20275;-66
2023/07/13 03:35:17;;;;;;;2.83;2.60;;;16.60;99.90;;;17.42;91.57;97945.00;10440204;28;20240;-66
2023/07/13 03:40:22;;;;;;;3.35;2.80;;;16.50;99.90;;;17.52;91.77;97954.81;10440495;28;20229;-67
2023/07/13 03:45:25;;;;;;;3.20;2.83;;;16.50;99.90;;;17.54;92.72;97960.00;10434628;28;20232;-66
2023/07/13 03:50:28;;;;;;;3.38;2.40;;;16.60;99.90;;;17.47;90.13;97974.47;10433773;28;20719;-66
2023/07/13 03:55:33;;;;;;;3.05;2.47;;;16.50;99.90;;;17.53;88.42;97972.06;10431899;28;20239;-66
2023/07/13 04:00:36;;;;;;;2.88;2.40;;;16.60;99.90;;;17.56;90.41;97974.75;10435516;28;20232;-67
2023/07/13 04:05:40;;;;;;;2.80;2.33;;;16.70;99.90;;;17.64;90.28;97982.75;10442200;28;20231;-67
2023/07/13 04:10:45;;;;;;;3.33;3.13;;;16.70;99.90;;;17.66;89.39;97977.66;10438955;28;20735;-67
2023/07/13 04:15:48;;;;;;;3.90;3.33;;;16.60;99.90;;;17.66;88.88;97981.09;10435555;28;20231;-66
2023/07/13 04:20:52;;;;;;;3.60;2.75;;;16.60;99.90;;;17.61;86.79;97977.47;10435707;28;20225;-67
2023/07/13 04:25:56;;;;;;;2.78;2.47;;;16.60;99.90;;;17.53;84.13;97989.28;10439559;28;20230;-68
2023/07/13 04:30:59;;;;;;;2.80;2.47;;;16.60;99.90;;;17.65;84.57;97988.78;10440207;28;20231;-68
2023/07/13 04:36:02;;;;;;;3.38;2.70;;;16.70;99.90;;;17.63;85.46;98000.81;10438332;28;20227;-67
2023/07/13 04:41:10;;;;;;;3.67;2.38;;;16.80;99.90;;;17.81;84.87;97998.81;10448807;28;20239;-67
2023/07/13 04:46:17;;;;;;;4.80;2.80;;;16.90;99.90;;;17.90;84.71;98000.81;10443674;28;20279;-67
2023/07/13 04:51:21;;;;;;;3.17;2.95;;;17.00;99.90;;;18.13;84.14;97994.59;10444413;28;20719;-67
2023/07/13 04:56:25;;;;;;;4.07;2.40;;;17.00;99.90;;;18.24;83.49;97988.03;10446028;28;20308;-67
2023/07/13 05:01:29;;;;;;;3.10;2.80;;;17.20;99.90;;;18.37;85.57;97984.09;10444453;28;20237;-67
2023/07/13 05:06:32;;;;;;;3.58;2.88;;;17.30;99.90;;;18.55;83.46;97983.72;10441841;28;20239;-68
2023/07/13 05:11:37;;;;;;;3.47;2.80;;;17.50;99.90;;;18.58;84.04;97985.53;10440807;28;20701;-68
2023/07/13 05:16:40;;;;;;;3.33;2.88;;;17.50;99.90;;;18.49;82.88;97995.63;10445898;28;20701;-68
2023/07/13 05:21:43;;;;;;;3.15;2.85;;;17.40;99.90;;;18.38;83.38;98001.38;10440412;28;20584;-68
2023/07/13 05:26:48;;;;;;;4.05;2.53;;;17.40;99.90;;;18.45;81.90;98011.06;10444011;28;20568;-67
2023/07/13 05:31:51;;;;;;;3.47;2.63;;;17.30;99.90;;;18.43;82.62;98004.97;10445185;28;20236;-68
2023/07/13 05:36:54;;;;;;;4.18;2.90;;;17.30;99.90;;;18.50;82.64;98010.31;10446990;28;20283;-68
2023/07/13 05:41:59;;;;;;;3.20;2.90;;;17.40;99.90;;;18.58;83.16;98009.72;10446136;28;20619;-68
2023/07/13 05:47:02;;;;;;;3.15;2.85;;;17.60;99.90;;;18.67;83.32;97998.72;10433357;28;20563;-68
2023/07/13 05:52:07;;;;;;;4.20;2.50;;;17.70;99.90;;;18.93;83.16;98012.41;10435693;28;20328;-68
2023/07/13 05:57:12;;;;;;;4.22;2.60;;;18.00;99.90;;;19.10;81.11;98007.66;10436896;28;20748;-68
2023/07/13 06:02:15;;;;;;;2.80;2.50;;;18.20;99.90;;;19.80;77.23;98012.03;10440888;28;20229;-68
2023/07/13 06:07:18;;;;;;;3.70;2.33;;;18.70;99.90;;;20.03;74.67;98022.06;10441896;28;20661;-68
2023/07/13 06:12:23;;;;;;;3.15;2.80;;;18.90;99.90;;;20.07;73.60;98018.66;10443487;28;20237;-68
2023/07/13 06:17:27;;;;;;;4.32;2.85;;;18.90;99.90;;;20.26;72.24;98027.75;10440739;28;20550;-68
2023/07/13 06:22:30;;;;;;;3.28;2.80;;;19.10;99.90;;;20.16;73.05;98034.44;10440113;28;20732;-68
2023/07/13 06:27:35;;;;;;;3.75;2.90;;;19.10;99.90;;;20.30;72.43;98037.34;10443304;28;20247;-67
2023/07/13 06:32:38;;;;;;;4.20;3.10;;;19.20;99.90;;;20.76;71.14;98040.03;10440760;28;20724;-68
2023/07/13 06:37:43;;;;;;;4.85;2.88;;;19.60;99.90;;;21.99;66.73;98048.25;10437950;28;20232;-68
2023/07/13 06:42:48;;;;;;;4.50;2.40;;;20.50;99.90;;;23.28;59.43;98048.16;10441529;28;20217;-69
2023/07/13 06:47:51;;;;;;;3.58;2.45;;;21.80;99.90;;;24.79;52.29;98052.72;10436041;28;20240;-67
2023/07/13 06:52:54;;;;;;;3.63;2.30;;;23.00;99.90;;;26.03;46.64;98060.78;10384943;23;20218;-67
2023/07/13 06:57:59;;;;;;;3.28;2.10;;;24.00;96.40;;;25.66;47.03;98056.41;10351150;28;20228;-67
2023/07/13 07:03:02;;;;;;;4.60;2.53;;;23.50;95.70;;;25.51;45.73;98055.53;10363665;28;20226;-67
2023/07/13 07:08:05;;;;;;;3.03;2.00;;;23.40;95.20;;;25.55;45.70;98062.53;10373729;28;20226;-67
2023/07/13 07:13:10;;;;;;;4.72;2.25;;;23.50;94.10;;;25.15;46.14;98062.47;10371946;28;20233;-67
2023/07/13 07:18:13;;;;;;;4.07;2.40;;;23.00;94.40;;;24.79;46.67;98072.78;10356596;28;20218;-67
2023/07/13 07:23:16;;;;;;;2.88;2.00;;;22.90;94.70;;;26.06;44.19;98078.25;10359865;28;20234;-67
2023/07/13 07:28:22;;;;;;;3.17;1.92;;;24.50;92.40;;;27.05;41.42;98071.84;10366557;28;20268;-68
2023/07/13 07:33:28;;;;;;;4.18;1.90;;;25.40;90.60;;;27.73;39.93;98067.06;10366033;28;20228;-67
2023/07/13 07:38:31;;;;;;;2.15;1.50;;;25.80;88.40;;;27.36;37.31;98069.97;10369390;28;20308;-67
2023/07/13 07:43:36;;;;;;;3.38;1.58;;;25.80;83.00;;;27.02;38.42;98081.50;10371954;28;20618;-67
2023/07/13 07:48:39;;;;;;;2.72;1.67;;;25.60;82.90;;;27.90;37.70;98084.44;10366610;28;20229;-67
2023/07/13 07:53:42;;;;;;;2.05;1.42;;;25.90;83.50;;;28.33;35.87;98081.41;10368859;28;20833;-68
2023/07/13 07:58:47;;;;;;;2.13;1.63;;;26.30;81.20;;;29.05;34.54;98078.88;10369841;28;20221;-68
2023/07/13 08:03:53;;;;;;;1.83;1.45;;;26.80;79.10;;;29.58;32.52;98074.59;10365501;28;20237;-68
2023/07/13 08:08:59;;;;;;;2.88;1.50;;;26.90;75.80;;;29.96;32.34;98073.16;10373642;28;20236;-68
2023/07/13 08:14:03;;;;;;;1.45;1.30;;;27.10;75.50;;;30.42;30.89;98072.34;10369999;28;20244;-68
2023/07/13 08:19:06;;;;;;;2.42;1.63;;;27.60;73.00;;;30.76;32.21;98082.19;10370688;28;20231;-68
2023/07/13 08:24:10;;;;;;;2.05;1.33;;;27.90;75.00;;;30.02;31.77;98082.72;10368876;28;20230;-68
2023/07/13 08:29:14;;;;;;;2.20;1.40;;;28.00;71.40;;;29.41;32.40;98080.09;10380214;28;20317;-68
2023/07/13 08:34:18;;;;;;;2.05;1.52;;;27.70;70.60;;;29.69;32.03;98073.59;10369822;28;20316;-68
2023/07/13 08:39:21;;;;;;;2.63;1.50;;;27.90;70.50;;;29.82;32.65;98080.41;10363948;28;20951;-68
2023/07/13 08:44:46;;;;;;;2.92;1.52;;;28.40;70.50;;;29.61;32.17;98090.34;10380748;28;20287;-68
2023/07/13 08:49:49;;;;;;;2.97;1.67;;;28.30;68.90;;;29.63;29.56;98093.88;10369089;28;20704;-68
2023/07/13 08:54:56;;;;;;;1.67;1.20;;;28.50;64.30;;;29.66;30.63;98089.47;10364589;28;20784;-68
2023/07/13 09:00:00;;;;;;;1.52;1.20;;;28.70;65.10;;;29.72;29.45;98081.44;10363109;28;20784;-68
2023/07/13 09:05:13;;;;;;;2.30;1.40;;;28.80;63.30;;;29.26;30.20;98084.75;10367355;28;20237;-68
2023/07/13 09:10:20;;;;;;;3.00;1.25;;;28.20;64.00;;;29.10;30.20;98090.22;10368784;28;20237;-67
2023/07/13 09:15:32;;;;;;;2.42;1.60;;;28.20;63.00;;;29.54;29.30;98096.63;10374048;28;20229;-68
2023/07/13 09:20:39;;;;;;;2.97;1.50;;;28.70;61.60;;;28.73;31.07;98092.41;10365677;28;20229;-67
2023/07/13 09:25:44;;;;;;;3.03;1.50;;;27.90;63.30;;;29.22;30.13;98096.19;10366874;28;20253;-68
2023/07/13 09:30:59;;;;;;;6.82;2.08;;;28.40;61.40;;;28.83;32.06;98098.44;10372832;28;20375;-68
2023/07/13 09:36:18;;;;;;;2.25;1.52;;;28.20;62.90;;;28.75;29.59;98088.00;10364186;28;20249;-68
2023/07/13 09:41:32;;;;;;;3.97;1.73;;;28.10;59.90;;;28.86;29.81;98090.50;10369842;28;20240;-68
2023/07/13 09:46:37;;;;;;;3.60;1.30;;;28.50;61.40;;;29.03;29.23;98087.69;10369562;28;20321;-68
2023/07/13 09:51:43;;;;;;;2.20;1.30;;;28.20;59.90;;;29.49;28.53;98093.19;10374067;28;20663;-68
2023/07/13 09:56:46;;;;;;;1.65;1.23;;;28.90;58.60;;;29.49;29.64;98093.19;10369214;28;20237;-68
2023/07/13 10:01:51;;;;;;;2.13;1.75;;;28.90;59.90;;;29.53;29.15;98084.34;10365906;28;20734;-67
2023/07/13 10:07:39;;;;;;;2.97;1.60;;;28.70;60.40;;;29.36;28.77;98083.69;10378199;28;20226;-68
2023/07/13 10:12:42;;;;;;;3.20;1.55;;;29.00;58.30;;;29.40;28.53;98088.91;10365774;28;20584;-68
2023/07/13 10:17:47;;;;;;;2.15;1.55;;;28.90;58.10;;;28.98;28.95;98091.19;10370779;28;20701;-67
2023/07/13 10:22:56;;;;;;;2.10;1.50;;;28.30;59.20;;;29.08;28.64;98097.28;10373629;28;20767;-67
2023/07/13 10:28:04;;;;;;;4.35;1.50;;;28.40;58.70;;;28.67;28.70;98096.00;10374747;28;20288;-67
2023/07/13 10:33:13;;;;;;;2.78;1.40;;;27.90;58.50;;;29.05;29.75;98086.78;10369391;28;20608;-67
2023/07/13 10:38:22;;;;;;;1.88;1.52;;;28.60;59.20;;;29.14;30.56;98081.38;10369375;28;20225;-68
2023/07/13 10:43:30;;;;;;;2.70;1.45;;;28.60;60.80;;;29.44;29.22;98083.59;10357471;28;20230;-68
2023/07/13 10:48:36;;;;;;;3.45;1.60;;;28.70;58.90;;;29.68;27.98;98074.50;10367806;28;21222;-66
2023/07/13 10:53:40;;;;;;;3.00;1.98;;;28.90;58.30;;;29.49;28.53;98077.38;10365559;28;20233;-67
2023/07/13 10:58:45;;;;;;;4.95;1.65;;;28.80;58.30;;;29.00;28.39;98070.13;10368406;28;20228;-67
2023/07/13 11:03:56;;;;;;;4.78;1.35;;;28.30;58.10;;;28.53;28.99;98071.63;10372878;28;20225;-67
2023/07/13 11:09:25;;;;;;;2.88;1.50;;;27.80;58.80;;;28.33;30.50;98069.16;10360875;28;20611;-67
2023/07/13 11:14:35;;;;;;;4.20;1.50;;;27.30;60.50;;;28.78;29.55;98068.66;10372848;28;20230;-68
2023/07/13 11:19:42;;;;;;;3.60;1.77;;;27.90;59.30;;;28.82;29.27;98049.34;10362199;28;20233;-67
2023/07/13 11:24:59;;;;;;;2.92;1.95;;;28.00;58.80;;;28.85;29.93;98054.56;10364241;28;20245;-67
2023/07/13 11:30:23;;;;;;;2.78;1.30;;;28.10;59.30;;;28.75;29.14;98046.75;10368620;28;20251;-67
2023/07/13 11:35:29;;;;;;;2.38;1.75;;;28.00;59.20;;;28.77;30.36;98038.84;10366745;28;20967;-67
2023/07/13 11:40:33;;;;;;;2.75;1.45;;;27.90;60.00;;;28.77;29.66;98033.59;10363657;28;20710;-67
2023/07/13 11:45:36;;;;;;;4.03;1.73;;;28.00;59.00;;;28.57;29.97;98040.88;10369860;28;20233;-68
2023/07/13 11:51:00;;;;;;;1.50;1.40;;;27.80;59.20;;;28.43;30.22;98039.25;10364984;28;21579;-67
2023/07/13 11:56:04;;;;;;;3.97;1.63;;;27.60;59.90;;;28.70;28.97;98038.06;10356664;28;20313;-67
2023/07/13 12:01:07;;;;;;;2.95;1.60;;;28.00;58.70;;;28.16;29.75;98037.78;10361958;28;20222;-70
2023/07/13 12:06:27;;;;;;;3.72;1.70;;;27.80;59.00;;;28.29;30.39;98041.13;10368909;28;20225;-67
2023/07/13 12:11:37;;;;;;;2.33;1.50;;;27.80;59.80;;;28.28;29.69;98037.66;10365643;28;20221;-67
2023/07/13 12:16:44;;;;;;;2.50;1.40;;;27.70;59.10;;;28.31;31.00;98039.38;10366824;28;20240;-67
2023/07/13 12:21:50;;;;;;;1.92;1.60;;;27.60;59.90;;;28.25;29.83;98040.31;10364483;28;20232;-67
2023/07/13 12:26:56;;;;;;;3.40;1.80;;;27.50;59.20;;;28.28;29.74;98040.28;10369755;28;20227;-67
2023/07/13 12:32:00;;;;;;;1.67;1.30;;;27.60;58.80;;;28.04;30.24;98033.53;10353932;28;20234;-67
2023/07/13 12:37:12;;;;;;;3.45;1.60;;;27.30;59.80;;;28.33;29.79;98036.72;10351690;28;20532;-67
2023/07/13 12:42:23;;;;;;;4.10;1.67;;;27.40;59.00;;;28.64;29.88;98040.75;10363393;28;20257;-67
2023/07/13 12:47:27;;;;;;;2.08;1.50;;;28.00;59.70;;;28.51;30.42;98023.41;10362225;28;20225;-67
2023/07/13 12:52:35;;;;;;;3.42;1.80;;;27.80;60.10;;;28.69;30.69;98025.78;10370659;23;20232;-76
2023/07/13 12:57:51;;;;;;;2.17;1.45;;;27.90;60.00;;;28.89;29.53;98032.56;10359977;28;20276;-77
2023/07/13 13:02:56;;;;;;;2.75;1.67;;;28.10;58.50;;;28.01;30.82;98025.66;10351072;28;20245;-77
2023/07/13 13:08:19;;;;;;;2.72;1.48;;;27.40;59.70;;;27.83;31.11;98013.56;10357262;28;20660;-77
2023/07/13 13:13:23;;;;;;;2.90;1.65;;;27.10;60.20;;;28.02;31.00;98019.53;10363593;28;20797;-76
2023/07/13 13:18:26;;;;;;;2.72;1.50;;;27.20;60.20;;;28.27;31.13;98017.50;10355286;28;20847;-76
2023/07/13 13:23:31;;;;;;;2.20;1.60;;;27.60;60.40;;;28.67;30.73;98026.69;10356654;28;20261;-77
2023/07/13 13:28:34;;;;;;;2.65;1.63;;;27.90;60.30;;;28.10;30.77;98010.66;10352008;28;20935;-76
2023/07/13 13:33:40;;;;;;;1.80;1.50;;;27.40;59.70;;;28.27;31.36;98021.88;10359630;28;20642;-76
2023/07/13 13:38:45;;;;;;;3.20;1.67;;;27.50;60.90;;;28.38;30.09;98020.00;10355145;28;20221;-77
2023/07/13 13:43:48;;;;;;;2.38;1.60;;;27.70;59.40;;;28.06;29.69;98005.44;10355105;28;20238;-77
2023/07/13 13:48:51;;;;;;;3.53;1.80;;;27.40;58.30;;;27.89;30.72;98015.25;10355081;28;20638;-77
2023/07/13 13:53:56;;;;;;;1.77;1.55;;;27.20;59.80;;;27.84;31.27;98012.69;10352599;28;20238;-76
2023/07/13 13:59:00;;;;;;;3.97;1.70;;;27.20;60.00;;;27.88;31.39;98015.28;10350234;28;20944;-77
2023/07/13 14:04:03;;;;;;;2.83;1.40;;;27.20;60.30;;;28.02;30.79;98016.91;10353488;28;20790;-76
2023/07/13 14:09:12;;;;;;;3.58;1.55;;;27.30;60.10;;;27.75;30.51;98007.47;10358416;28;20254;-75
2023/07/13 14:14:21;;;;;;;2.25;1.60;;;27.10;59.10;;;27.74;31.01;98010.13;10351947;28;20257;-77
2023/07/13 14:19:25;;;;;;;3.22;1.50;;;27.00;60.00;;;27.74;30.37;98000.50;10347181;28;20233;-77
2023/07/13 14:24:29;;;;;;;4.45;2.00;;;26.90;59.00;;;27.51;30.29;97992.81;10355637;28;20296;-76
2023/07/13 14:29:33;;;;;;;2.75;1.73;;;26.70;59.00;;;27.87;29.58;98010.91;10347908;28;20614;-76
2023/07/13 14:34:36;;;;;;;2.45;1.52;;;27.10;58.30;;;27.89;30.36;98004.75;10352470;28;20333;-78
2023/07/13 14:39:48;;;;;;;2.35;1.65;;;27.20;58.60;;;28.20;28.72;98007.94;10357261;28;20230;-77
2023/07/13 14:44:51;;;;;;;1.95;1.60;;;27.40;57.30;;;28.06;29.42;98013.34;10359944;28;20249;-76
2023/07/13 14:49:54;;;;;;;3.20;1.67;;;27.20;58.50;;;27.79;29.53;98019.75;10359564;28;20234;-76
2023/07/13 14:54:59;;;;;;;3.22;1.85;;;26.90;58.30;;;27.76;29.88;98009.22;10355851;28;20611;-76
2023/07/13 15:00:03;;;;;;;2.80;1.50;;;26.90;58.30;;;27.76;29.51;98016.25;10351540;28;20242;-76
2023/07/13 15:05:15;;;;;;;3.13;1.60;;;26.90;57.90;;;27.94;29.18;98023.13;10345979;28;20249;-76
2023/07/13 15:10:23;;;;;;;2.63;1.60;;;27.10;58.00;;;27.69;29.63;98004.91;10363313;28;20280;-75
2023/07/13 15:15:29;;;;;;;2.60;1.42;;;26.80;57.90;;;27.72;29.71;98007.50;10353431;28;20252;-76
2023/07/13 15:20:35;;;;;;;2.03;1.83;;;26.80;58.00;;;27.96;29.42;98005.59;10344071;28;20237;-77
2023/07/13 15:25:39;;;;;;;2.22;1.60;;;27.10;57.80;;;27.66;30.12;98001.44;10335567;28;20225;-76
2023/07/13 15:30:45;;;;;;;3.33;1.40;;;26.80;58.40;;;27.71;29.85;98003.16;10340727;28;20229;-76
2023/07/13 15:35:50;;;;;;;2.00;1.30;;;26.80;58.60;;;27.80;29.85;98004.84;10350302;28;20307;-75
2023/07/13 15:40:56;;;;;;;2.92;1.50;;;27.00;58.30;;;27.68;29.70;98002.31;10348048;28;20709;-77
2023/07/13 15:45:59;;;;;;;2.30;1.70;;;26.90;58.20;;;27.78;30.06;98006.56;10343217;28;20242;-76
2023/07/13 15:51:05;;;;;;;3.53;1.70;;;26.90;58.70;;;27.89;29.94;98010.00;10339051;28;20253;-77
2023/07/13 15:56:29;;;;;;;4.93;1.50;;;27.00;58.20;;;27.87;29.43;98001.25;10344467;28;20257;-76
2023/07/13 16:01:33;;;;;;;1.90;1.60;;;27.00;57.80;;;27.74;29.65;98005.75;10342795;28;20230;-77
2023/07/13 16:06:40;;;;;;;2.83;1.52;;;26.90;57.80;;;28.10;29.63;98018.56;10349384;28;20256;-76
2023/07/13 16:11:46;;;;;;;4.00;1.52;;;27.20;58.10;;;28.18;29.13;98008.84;10348138;28;20764;-76
2023/07/13 16:16:50;;;;;;;4.30;1.42;;;27.40;57.50;;;28.13;29.05;98003.66;10348299;28;20229;-78
2023/07/13 16:21:53;;;;;;;2.45;1.40;;;27.20;57.70;;;27.80;30.52;98005.72;10347931;28;20314;-77
2023/07/13 16:27:02;;;;;;;3.63;1.48;;;26.90;58.80;;;27.33;30.98;98008.72;10350593;28;20233;-76
2023/07/13 16:32:09;;;;;;;3.72;1.70;;;26.50;59.60;;;27.16;31.37;98011.47;10359622;28;20225;-77
2023/07/13 16:37:18;;;;;;;2.10;1.48;;;26.20;60.30;;;27.33;31.00;98012.22;10359066;28;20239;-76
2023/07/13 16:42:22;;;;;;;2.60;1.35;;;26.30;59.90;;;27.36;31.49;98014.81;10357075;28;20230;-76
2023/07/13 16:47:26;;;;;;;2.72;1.80;;;26.40;59.50;;;27.70;30.55;98017.16;10356506;28;20324;-77
2023/07/13 16:52:29;;;;;;;2.97;1.40;;;26.60;59.30;;;27.30;31.08;98025.38;10361028;28;20230;-77
2023/07/13 16:57:34;;;;;;;4.25;1.73;;;26.50;59.50;;;27.44;31.01;98027.00;10357655;28;20309;-76
2023/07/13 17:02:38;;;;;;;3.22;1.60;;;26.50;59.70;;;27.04;31.95;98020.25;10347141;28;20225;-76
2023/07/13 17:07:45;;;;;;;1.88;1.60;;;26.10;61.00;;;26.65;31.88;98029.19;10348969;28;20222;-77
2023/07/13 17:12:51;;;;;;;1.77;1.35;;;25.60;60.90;;;26.45;31.81;98024.88;10342446;28;20272;-77
2023/07/13 17:18:03;;;;;;;3.03;1.70;;;25.50;60.60;;;26.22;32.42;98029.31;10345737;28;20687;-77
2023/07/13 17:23:15;;;;;;;3.17;1.58;;;25.30;61.90;;;26.02;32.66;98038.09;10352510;28;20222;-77
2023/07/13 17:28:21;;;;;;;4.80;1.90;;;25.10;61.20;;;26.02;33.45;98040.72;10342642;28;20230;-77
2023/07/13 17:33:31;;;;;;;2.40;1.40;;;25.10;62.40;;;25.77;33.14;98031.97;10349699;28;20241;-77
2023/07/13 17:38:39;;;;;;;3.92;1.50;;;24.90;62.20;;;25.56;34.08;98043.31;10350725;28;20226;-78
2023/07/13 17:43:46;;;;;;;3.08;1.67;;;24.70;63.30;;;25.52;33.50;98033.69;10341770;28;20320;-78
2023/07/13 17:48:51;;;;;;;3.20;1.90;;;24.70;62.60;;;25.50;33.75;98030.22;10344289;28;20232;-77
2023/07/13 17:53:55;;;;;;;1.77;1.35;;;24.60;63.40;;;25.30;34.51;98037.19;10349734;28;20235;-77
2023/07/13 17:59:00;;;;;;;1.75;1.40;;;24.40;63.80;;;25.20;34.75;98031.06;10346099;28;20246;-77
2023/07/13 18:04:05;;;;;;;1.33;1.20;;;24.30;64.00;;;25.07;35.09;98048.47;10344603;28;20230;-78
2023/07/13 18:09:17;;;;;;;2.25;1.45;;;24.20;64.60;;;24.94;34.91;98057.13;10343289;28;20231;-78
2023/07/13 18:14:22;;;;;;;4.95;1.85;;;24.10;65.00;;;24.84;36.02;98056.25;10344015;28;20230;-79
2023/07/13 18:19:31;;;;;;;2.50;1.60;;;23.90;65.80;;;24.73;35.58;98053.56;10355206;28;20225;-78
2023/07/13 18:24:34;;;;;;;3.55;1.80;;;23.80;65.90;;;24.62;35.65;98065.72;10340088;28;20913;-77
2023/07/13 18:29:38;;;;;;;2.63;1.60;;;23.70;66.10;;;24.49;35.93;98071.75;10341357;28;20231;-77
2023/07/13 18:34:43;;;;;;;3.38;1.90;;;23.60;66.30;;;24.45;36.51;98077.84;10340382;28;20235;-78
2023/07/13 18:39:47;;;;;;;3.33;1.98;;;23.50;67.10;;;24.33;37.38;98072.53;10344472;28;20280;-78
2023/07/13 18:44:52;;;;;;;3.80;1.70;;;23.40;68.20;;;24.18;37.65;98071.56;10342534;28;20657;-78
2023/07/13 18:49:58;;;;;;;1.95;1.75;;;23.30;69.30;;;24.03;37.98;98084.50;10351221;28;20237;-80
2023/07/13 18:55:01;;;;;;;2.72;1.58;;;23.10;69.50;;;23.90;39.06;98087.91;10345760;28;20222;-77
2023/07/13 19:00:08;;;;;;;2.85;1.58;;;23.00;71.70;;;23.78;39.57;98093.91;10344340;28;20230;-78
2023/07/13 19:05:25;;;;;;;2.78;1.88;;;22.90;72.10;;;23.63;39.91;98097.19;10342993;28;20338;-77
2023/07/13 19:10:29;;;;;;;2.33;1.55;;;22.70;72.80;;;23.48;40.50;98091.84;10344840;28;20232;-78
2023/07/13 19:15:35;;;;;;;2.70;1.65;;;22.50;74.50;;;23.32;41.59;98107.38;10349817;28;20235;-78
2023/07/13 19:20:40;;;;;;;3.30;1.50;;;22.40;75.50;;;23.17;41.20;98109.78;10350110;28;20761;-77
2023/07/13 19:25:43;;;;;;;2.25;1.70;;;22.20;74.50;;;22.99;41.75;98122.63;10348754;28;20230;-76
2023/07/13 19:30:47;;;;;;;4.43;2.03;;;22.00;75.70;;;22.79;43.89;98123.22;10338855;28;20246;-78
2023/07/13 19:35:51;;;;;;;2.80;1.77;;;21.80;79.60;;;22.66;44.75;98131.72;10346772;28;20242;-76
2023/07/13 19:40:55;;;;;;;3.38;1.70;;;21.70;81.90;;;22.66;45.72;98142.13;10345607;28;20237;-77
2023/07/13 19:46:00;;;;;;;2.47;2.00;;;21.60;82.10;;;22.60;46.95;98152.47;10341466;28;20233;-77
2023/07/13 19:51:06;;;;;;;2.28;2.00;;;21.60;84.60;;;22.40;47.01;98163.47;10343443;28;20293;-77
2023/07/13 19:56:09;;;;;;;2.05;1.80;;;21.40;84.60;;;22.22;47.90;98168.41;10346915;28;20261;-77
2023/07/13 20:01:16;;;;;;;2.63;1.83;;;21.20;86.20;;;22.07;47.56;98160.34;10341737;28;20230;-77
2023/07/13 20:06:32;;;;;;;2.15;1.52;;;21.10;85.50;;;21.97;48.19;98180.13;10339792;28;20805;-76
2023/07/13 20:11:36;;;;;;;2.20;2.00;;;20.90;87.40;;;21.71;48.68;98182.28;10348644;28;20241;-77
2023/07/13 20:16:41;;;;;;;2.15;1.95;;;20.70;87.70;;;21.64;49.29;98186.50;10344334;28;20230;-79
2023/07/13 20:21:45;;;;;;;3.25;1.98;;;20.60;90.00;;;21.47;49.46;98191.38;10347387;28;20227;-77
2023/07/13 20:26:48;;;;;;;4.20;1.95;;;20.40;89.10;;;21.39;50.25;98199.88;10349278;28;20222;-76
2023/07/13 20:31:53;;;;;;;3.67;2.10;;;20.30;90.10;;;21.23;50.17;98204.75;10346468;28;20639;-77
2023/07/13 20:36:58;;;;;;;2.03;1.83;;;20.20;90.00;;;21.01;50.07;98199.94;10351322;28;20226;-77
2023/07/13 20:42:01;;;;;;;2.55;2.13;;;20.10;90.30;;;21.04;50.66;98208.69;10345660;28;22068;-76
2023/07/13 20:47:06;;;;;;;2.88;2.17;;;20.10;90.90;;;20.88;52.20;98206.59;10351663;28;20233;-77
2023/07/13 20:52:12;;;;;;;2.72;1.95;;;19.90;92.10;;;20.72;52.31;98214.88;10350453;28;20226;-75
2023/07/13 20:57:16;;;;;;;4.70;2.47;;;19.80;92.00;;;20.72;53.92;98220.06;10347213;28;20227;-76
2023/07/13 21:02:32;;;;;;;3.05;2.20;;;19.80;93.50;;;20.60;53.05;98218.06;10351254;28;20662;-77
2023/07/13 21:07:37;;;;;;;2.72;1.98;;;19.60;92.80;;;20.38;54.42;98219.28;10346822;28;20317;-78
2023/07/13 21:12:40;;;;;;;2.53;1.83;;;19.40;93.70;;;20.37;55.24;98222.69;10355785;28;20226;-76